首页
METAR-TAF:

METAR-TAF

机场 :

莫伊国际机场

蒙巴萨, 肯尼亚

纬度: 04-02S, 经度: 039-37E, 海拔: 57米

当前天气观测

该预报发布于54分钟前的02:00 UTC
风速3节,风向西南
温度 22°C
湿度 88%
气压 1015 hPa
能见度10公里或以上
少量云层高于2000英尺

METAR: HKMO 140200Z 22003KT 9999 FEW020 22/20 Q1015 NOSIG

时间: 05:54 (02:54 UTC)

预报

该预报发布于3小时和54分钟前的23:00 UTC
预报有效从14日的 00点(UTC)到 15日的 06点(UTC)
风速5节,风向西转西南
能见度10公里或以上
少量云层高于2000英尺
多云层高于8000英尺
成为
从 14日的 09点(UTC)到 14日的 12点(UTC)
风速15节,风向
少量云层高于2500英尺
成为
从 14日的 21点(UTC)到 14日的 24点(UTC)
风速5节,风向西南
成为
从 15日的 03点(UTC)到 15日的 06点(UTC)
少量云层高于2000英尺
多云层高于8000英尺

TAF: HKMO 132300Z 1400/1506 24005KT 9999 FEW020 BKN080 BECMG 1409/1412 18015KT FEW025 BECMG 1421/1424 22005KT BECMG 1503/1506 FEW020 BKN080

超过4000个机场的气象观测和天气预报(METAR&TAF报告)。

可查询的气象台以黄色和红色小点在地图上表示。

将鼠标移到小点上方,可查看气象台名称。

然后点击查看天气观测和预报。

如需切换地图:点击带黑十字的绿色按钮放大地图;点击带横线的绿色按钮缩小地图;或者点击绿色箭头查看邻近地区的地图。


METAR-TAF: